sensor_id;sensor_type;location;lat;lon;timestamp;pressure;altitude;pressure_sealevel;temperature;humidity
75895;BME280;64573;50.328;15.014;2023-06-01T00:00:45;99150.19;;;10.46;76.55
75895;BME280;64573;50.328;15.014;2023-06-01T00:03:11;99155.06;;;10.42;76.54
75895;BME280;64573;50.328;15.014;2023-06-01T00:05:36;99150.41;;;10.36;76.52
75895;BME280;64573;50.328;15.014;2023-06-01T00:08:01;99152.41;;;10.34;77.08
75895;BME280;64573;50.328;15.014;2023-06-01T00:10:29;99149.41;;;10.37;76.62
75895;BME280;64573;50.328;15.014;2023-06-01T00:12:55;99148.72;;;10.43;76.30
75895;BME280;64573;50.328;15.014;2023-06-01T00:15:20;99153.56;;;10.40;76.66
75895;BME280;64573;50.328;15.014;2023-06-01T00:17:45;99148.25;;;10.32;76.92
75895;BME280;64573;50.328;15.014;2023-06-01T00:20:11;99151.63;;;10.26;77.20
75895;BME280;64573;50.328;15.014;2023-06-01T00:22:37;99145.63;;;10.24;76.70
75895;BME280;64573;50.328;15.014;2023-06-01T00:25:07;99143.25;;;10.20;77.31
75895;BME280;64573;50.328;15.014;2023-06-01T00:27:32;99137.59;;;10.15;77.56
75895;BME280;64573;50.328;15.014;2023-06-01T00:29:57;99136.06;;;10.13;77.42
75895;BME280;64573;50.328;15.014;2023-06-01T00:32:23;99143.00;;;10.07;77.03
75895;BME280;64573;50.328;15.014;2023-06-01T00:34:48;99137.63;;;10.07;77.15
75895;BME280;64573;50.328;15.014;2023-06-01T00:37:13;99149.69;;;10.03;77.06
75895;BME280;64573;50.328;15.014;2023-06-01T00:39:39;99145.53;;;10.01;77.52
75895;BME280;64573;50.328;15.014;2023-06-01T00:42:05;99136.81;;;9.99;77.53
75895;BME280;64573;50.328;15.014;2023-06-01T00:44:31;99132.09;;;10.09;77.29
75895;BME280;64573;50.328;15.014;2023-06-01T00:46:56;99136.25;;;10.11;77.03
75895;BME280;64573;50.328;15.014;2023-06-01T00:49:24;99132.75;;;10.11;77.12
75895;BME280;64573;50.328;15.014;2023-06-01T00:51:50;99133.41;;;10.13;76.53
75895;BME280;64573;50.328;15.014;2023-06-01T00:54:15;99128.88;;;10.13;76.63
75895;BME280;64573;50.328;15.014;2023-06-01T00:56:41;99130.06;;;10.11;77.46
75895;BME280;64573;50.328;15.014;2023-06-01T00:59:06;99132.28;;;10.07;77.56
75895;BME280;64573;50.328;15.014;2023-06-01T01:01:32;99127.25;;;10.04;77.19
75895;BME280;64573;50.328;15.014;2023-06-01T01:03:58;99132.81;;;9.94;78.02
75895;BME280;64573;50.328;15.014;2023-06-01T01:09:23;99120.19;;;9.72;77.78
75895;BME280;64573;50.328;15.014;2023-06-01T01:12:00;99129.22;;;9.63;78.74
75895;BME280;64573;50.328;15.014;2023-06-01T01:14:40;99125.25;;;9.51;77.90
75895;BME280;64573;50.328;15.014;2023-06-01T01:17:33;99126.75;;;9.45;78.73
75895;BME280;64573;50.328;15.014;2023-06-01T01:20:13;99125.94;;;9.45;79.13
75895;BME280;64573;50.328;15.014;2023-06-01T01:22:57;99119.22;;;9.40;79.48
75895;BME280;64573;50.328;15.014;2023-06-01T01:28:35;99125.28;;;9.34;80.79
75895;BME280;64573;50.328;15.014;2023-06-01T01:31:04;99118.94;;;9.35;81.11
75895;BME280;64573;50.328;15.014;2023-06-01T01:33:32;99122.47;;;9.28;80.82
75895;BME280;64573;50.328;15.014;2023-06-01T01:35:59;99128.13;;;9.25;80.69
75895;BME280;64573;50.328;15.014;2023-06-01T01:38:24;99127.47;;;9.23;81.14
75895;BME280;64573;50.328;15.014;2023-06-01T01:40:50;99128.97;;;9.17;81.68
75895;BME280;64573;50.328;15.014;2023-06-01T01:43:18;99122.78;;;9.17;80.88
75895;BME280;64573;50.328;15.014;2023-06-01T01:45:44;99111.44;;;9.15;81.09
75895;BME280;64573;50.328;15.014;2023-06-01T01:51:03;99118.44;;;9.07;81.03
75895;BME280;64573;50.328;15.014;2023-06-01T01:53:31;99111.94;;;9.02;81.73
75895;BME280;64573;50.328;15.014;2023-06-01T01:55:58;99117.09;;;9.03;82.27
75895;BME280;64573;50.328;15.014;2023-06-01T01:58:24;99110.59;;;9.14;82.66
75895;BME280;64573;50.328;15.014;2023-06-01T02:00:52;99100.22;;;9.27;82.24
75895;BME280;64573;50.328;15.014;2023-06-01T02:03:18;99105.19;;;9.38;82.11
75895;BME280;64573;50.328;15.014;2023-06-01T02:05:44;99105.41;;;9.21;82.23
75895;BME280;64573;50.328;15.014;2023-06-01T02:08:10;99105.56;;;9.11;82.30
75895;BME280;64573;50.328;15.014;2023-06-01T02:10:36;99107.94;;;9.06;82.66
75895;BME280;64573;50.328;15.014;2023-06-01T02:13:02;99109.59;;;9.07;82.39
75895;BME280;64573;50.328;15.014;2023-06-01T02:15:28;99106.75;;;8.92;82.88
75895;BME280;64573;50.328;15.014;2023-06-01T02:17:53;99103.56;;;8.80;82.76
75895;BME280;64573;50.328;15.014;2023-06-01T02:20:19;99099.88;;;8.81;83.19
75895;BME280;64573;50.328;15.014;2023-06-01T02:22:44;99097.03;;;8.75;84.06
75895;BME280;64573;50.328;15.014;2023-06-01T02:25:10;99097.22;;;8.65;84.03
75895;BME280;64573;50.328;15.014;2023-06-01T02:27:35;99104.06;;;8.68;84.18
75895;BME280;64573;50.328;15.014;2023-06-01T02:30:01;99104.75;;;8.70;84.33
75895;BME280;64573;50.328;15.014;2023-06-01T02:32:26;99099.53;;;8.68;83.43
75895;BME280;64573;50.328;15.014;2023-06-01T02:34:52;99101.91;;;8.63;83.16
75895;BME280;64573;50.328;15.014;2023-06-01T02:37:17;99104.41;;;8.56;83.09
75895;BME280;64573;50.328;15.014;2023-06-01T02:39:42;99103.22;;;8.51;83.08
75895;BME280;64573;50.328;15.014;2023-06-01T02:42:08;99104.38;;;8.48;83.68
75895;BME280;64573;50.328;15.014;2023-06-01T02:44:33;99097.69;;;8.44;83.40
75895;BME280;64573;50.328;15.014;2023-06-01T02:46:58;99096.19;;;8.50;83.76
75895;BME280;64573;50.328;15.014;2023-06-01T02:49:24;99094.19;;;8.60;83.72
75895;BME280;64573;50.328;15.014;2023-06-01T02:51:49;99100.56;;;8.67;83.66
75895;BME280;64573;50.328;15.014;2023-06-01T02:54:14;99097.56;;;8.70;83.57
75895;BME280;64573;50.328;15.014;2023-06-01T02:56:40;99102.56;;;8.65;84.33
75895;BME280;64573;50.328;15.014;2023-06-01T02:59:05;99102.38;;;8.59;85.31
75895;BME280;64573;50.328;15.014;2023-06-01T03:01:31;99096.38;;;8.48;85.73
75895;BME280;64573;50.328;15.014;2023-06-01T03:04:01;99096.03;;;8.43;86.55
75895;BME280;64573;50.328;15.014;2023-06-01T03:06:29;99097.69;;;8.36;85.75
75895;BME280;64573;50.328;15.014;2023-06-01T03:08:57;99092.13;;;8.29;86.46
75895;BME280;64573;50.328;15.014;2023-06-01T03:11:23;99098.47;;;8.28;86.06
75895;BME280;64573;50.328;15.014;2023-06-01T03:13:48;99096.09;;;8.25;86.49
75895;BME280;64573;50.328;15.014;2023-06-01T03:16:14;99098.97;;;8.32;86.83
75895;BME280;64573;50.328;15.014;2023-06-01T03:18:41;99102.84;;;8.38;87.03
75895;BME280;64573;50.328;15.014;2023-06-01T03:21:07;99094.72;;;8.47;86.89
75895;BME280;64573;50.328;15.014;2023-06-01T03:23:32;99098.72;;;8.60;87.44
75895;BME280;64573;50.328;15.014;2023-06-01T03:25:57;99100.91;;;8.64;86.83
75895;BME280;64573;50.328;15.014;2023-06-01T03:28:23;99105.72;;;8.69;86.14
75895;BME280;64573;50.328;15.014;2023-06-01T03:30:48;99104.59;;;8.71;86.30
75895;BME280;64573;50.328;15.014;2023-06-01T03:33:14;99098.06;;;8.82;86.56
75895;BME280;64573;50.328;15.014;2023-06-01T03:35:40;99105.59;;;8.95;85.91
75895;BME280;64573;50.328;15.014;2023-06-01T03:38:05;99088.03;;;9.08;84.76
75895;BME280;64573;50.328;15.014;2023-06-01T03:40:31;99090.47;;;9.26;84.68
75895;BME280;64573;50.328;15.014;2023-06-01T03:42:56;99100.66;;;9.47;84.56
75895;BME280;64573;50.328;15.014;2023-06-01T03:45:21;99108.34;;;9.58;84.02
75895;BME280;64573;50.328;15.014;2023-06-01T03:47:47;99097.09;;;9.63;83.81
75895;BME280;64573;50.328;15.014;2023-06-01T03:50:12;99089.53;;;9.75;84.14
75895;BME280;64573;50.328;15.014;2023-06-01T03:52:38;99091.81;;;9.94;82.73
75895;BME280;64573;50.328;15.014;2023-06-01T03:55:05;99089.22;;;10.09;82.20
75895;BME280;64573;50.328;15.014;2023-06-01T03:57:34;99096.00;;;10.19;82.15
75895;BME280;64573;50.328;15.014;2023-06-01T04:00:01;99089.47;;;10.30;80.70
75895;BME280;64573;50.328;15.014;2023-06-01T04:02:26;99091.72;;;10.41;80.38
75895;BME280;64573;50.328;15.014;2023-06-01T04:04:53;99098.59;;;10.44;80.77
75895;BME280;64573;50.328;15.014;2023-06-01T04:07:20;99102.25;;;10.51;80.77
75895;BME280;64573;50.328;15.014;2023-06-01T04:09:47;99090.75;;;10.65;80.45
75895;BME280;64573;50.328;15.014;2023-06-01T04:12:14;99091.22;;;10.69;79.90
75895;BME280;64573;50.328;15.014;2023-06-01T04:14:40;99093.88;;;10.69;79.20
75895;BME280;64573;50.328;15.014;2023-06-01T04:17:06;99095.56;;;10.70;79.36
75895;BME280;64573;50.328;15.014;2023-06-01T04:19:32;99081.63;;;10.74;79.23
75895;BME280;64573;50.328;15.014;2023-06-01T04:21:59;99092.88;;;10.70;80.00
75895;BME280;64573;50.328;15.014;2023-06-01T04:24:24;99095.84;;;10.75;80.70
75895;BME280;64573;50.328;15.014;2023-06-01T04:26:49;99086.34;;;10.72;80.80
75895;BME280;64573;50.328;15.014;2023-06-01T04:29:15;99086.72;;;10.84;79.67
75895;BME280;64573;50.328;15.014;2023-06-01T04:31:41;99095.25;;;10.88;79.94
75895;BME280;64573;50.328;15.014;2023-06-01T04:34:06;99096.25;;;11.10;78.83
75895;BME280;64573;50.328;15.014;2023-06-01T04:36:35;99083.56;;;11.18;78.83
75895;BME280;64573;50.328;15.014;2023-06-01T04:39:05;99096.47;;;11.23;78.17
75895;BME280;64573;50.328;15.014;2023-06-01T04:41:32;99090.19;;;11.30;78.48
75895;BME280;64573;50.328;15.014;2023-06-01T04:43:58;99098.19;;;11.83;76.93
75895;BME280;64573;50.328;15.014;2023-06-01T04:46:24;99093.88;;;12.18;76.09
75895;BME280;64573;50.328;15.014;2023-06-01T04:48:52;99087.91;;;12.59;74.29
75895;BME280;64573;50.328;15.014;2023-06-01T04:51:18;99085.78;;;13.18;72.44
75895;BME280;64573;50.328;15.014;2023-06-01T04:53:50;99082.75;;;13.56;70.81
75895;BME280;64573;50.328;15.014;2023-06-01T04:56:24;99080.09;;;14.04;69.44
75895;BME280;64573;50.328;15.014;2023-06-01T04:58:52;99075.94;;;14.62;67.43
75895;BME280;64573;50.328;15.014;2023-06-01T05:01:18;99082.44;;;15.01;65.10
75895;BME280;64573;50.328;15.014;2023-06-01T05:03:44;99085.25;;;14.53;66.64
75895;BME280;64573;50.328;15.014;2023-06-01T05:06:13;99090.09;;;14.98;65.21
75895;BME280;64573;50.328;15.014;2023-06-01T05:08:40;99085.53;;;15.44;62.32
75895;BME280;64573;50.328;15.014;2023-06-01T05:11:07;99078.44;;;15.63;61.25
75895;BME280;64573;50.328;15.014;2023-06-01T05:13:36;99076.63;;;16.15;59.27
75895;BME280;64573;50.328;15.014;2023-06-01T05:16:03;99072.56;;;16.38;56.72
75895;BME280;64573;50.328;15.014;2023-06-01T05:18:28;99071.25;;;16.47;56.53
75895;BME280;64573;50.328;15.014;2023-06-01T05:20:54;99074.06;;;16.27;56.57
75895;BME280;64573;50.328;15.014;2023-06-01T05:23:19;99072.72;;;16.05;57.52
75895;BME280;64573;50.328;15.014;2023-06-01T05:25:45;99080.78;;;16.18;57.80
75895;BME280;64573;50.328;15.014;2023-06-01T05:28:10;99080.09;;;16.74;55.78
75895;BME280;64573;50.328;15.014;2023-06-01T05:30:36;99073.78;;;16.80;55.16
75895;BME280;64573;50.328;15.014;2023-06-01T05:33:01;99076.41;;;17.43;53.32
75895;BME280;64573;50.328;15.014;2023-06-01T05:35:28;99078.19;;;17.06;52.89
75895;BME280;64573;50.328;15.014;2023-06-01T05:37:54;99070.69;;;16.76;54.47
75895;BME280;64573;50.328;15.014;2023-06-01T05:40:19;99072.09;;;16.47;57.83
75895;BME280;64573;50.328;15.014;2023-06-01T05:42:44;99072.59;;;17.26;55.26
75895;BME280;64573;50.328;15.014;2023-06-01T05:45:10;99065.28;;;17.70;55.89
75895;BME280;64573;50.328;15.014;2023-06-01T05:47:35;99065.72;;;17.48;56.54
75895;BME280;64573;50.328;15.014;2023-06-01T05:50:01;99073.81;;;17.73;56.07
75895;BME280;64573;50.328;15.014;2023-06-01T05:52:26;99068.09;;;18.00;56.60
75895;BME280;64573;50.328;15.014;2023-06-01T05:54:52;99065.91;;;18.08;54.61
75895;BME280;64573;50.328;15.014;2023-06-01T05:57:19;99064.84;;;17.73;56.16
75895;BME280;64573;50.328;15.014;2023-06-01T05:59:44;99063.25;;;16.97;57.63
75895;BME280;64573;50.328;15.014;2023-06-01T06:02:11;99065.00;;;16.85;58.81
75895;BME280;64573;50.328;15.014;2023-06-01T06:04:36;99060.81;;;17.14;56.97
75895;BME280;64573;50.328;15.014;2023-06-01T06:07:01;99062.41;;;17.89;55.73
75895;BME280;64573;50.328;15.014;2023-06-01T06:09:27;99058.19;;;18.72;53.07
75895;BME280;64573;50.328;15.014;2023-06-01T06:11:52;99070.53;;;18.38;52.56
75895;BME280;64573;50.328;15.014;2023-06-01T06:14:18;99061.97;;;18.83;51.68
75895;BME280;64573;50.328;15.014;2023-06-01T06:16:43;99066.38;;;18.84;50.57
75895;BME280;64573;50.328;15.014;2023-06-01T06:19:09;99064.81;;;19.41;49.82
75895;BME280;64573;50.328;15.014;2023-06-01T06:21:35;99065.41;;;19.78;48.44
75895;BME280;64573;50.328;15.014;2023-06-01T06:24:01;99069.75;;;20.31;47.63
75895;BME280;64573;50.328;15.014;2023-06-01T06:26:26;99066.38;;;20.13;48.41
75895;BME280;64573;50.328;15.014;2023-06-01T06:28:55;99060.38;;;20.96;45.71
75895;BME280;64573;50.328;15.014;2023-06-01T06:31:20;99061.69;;;20.93;45.69
75895;BME280;64573;50.328;15.014;2023-06-01T06:33:46;99059.47;;;21.41;44.37
75895;BME280;64573;50.328;15.014;2023-06-01T06:36:12;99059.72;;;21.95;42.94
75895;BME280;64573;50.328;15.014;2023-06-01T06:38:37;99065.28;;;21.83;43.11
75895;BME280;64573;50.328;15.014;2023-06-01T06:41:03;99061.28;;;21.02;44.82
75895;BME280;64573;50.328;15.014;2023-06-01T06:43:28;99061.13;;;21.42;43.81
75895;BME280;64573;50.328;15.014;2023-06-01T06:45:54;99059.69;;;21.56;43.80
75895;BME280;64573;50.328;15.014;2023-06-01T06:48:19;99057.38;;;21.65;43.31
75895;BME280;64573;50.328;15.014;2023-06-01T06:50:44;99066.00;;;21.95;42.56
75895;BME280;64573;50.328;15.014;2023-06-01T06:53:11;99072.63;;;22.21;41.80
75895;BME280;64573;50.328;15.014;2023-06-01T06:55:36;99061.72;;;22.48;41.20
75895;BME280;64573;50.328;15.014;2023-06-01T06:58:02;99065.00;;;21.85;41.58
75895;BME280;64573;50.328;15.014;2023-06-01T07:00:27;99064.88;;;22.13;42.39
75895;BME280;64573;50.328;15.014;2023-06-01T07:02:53;99062.03;;;22.79;40.17
75895;BME280;64573;50.328;15.014;2023-06-01T07:05:19;99061.44;;;23.68;37.86
75895;BME280;64573;50.328;15.014;2023-06-01T07:07:44;99054.88;;;24.32;36.91
75895;BME280;64573;50.328;15.014;2023-06-01T07:10:09;99055.31;;;24.96;35.58
75895;BME280;64573;50.328;15.014;2023-06-01T07:12:35;99063.00;;;24.94;34.94
75895;BME280;64573;50.328;15.014;2023-06-01T07:15:01;99062.84;;;24.28;36.45
75895;BME280;64573;50.328;15.014;2023-06-01T07:17:27;99063.34;;;23.67;37.60
75895;BME280;64573;50.328;15.014;2023-06-01T07:19:52;99061.13;;;22.68;39.62
75895;BME280;64573;50.328;15.014;2023-06-01T07:22:17;99063.88;;;23.27;39.19
75895;BME280;64573;50.328;15.014;2023-06-01T07:24:43;99061.56;;;23.51;38.66
75895;BME280;64573;50.328;15.014;2023-06-01T07:27:10;99062.94;;;24.59;37.44
75895;BME280;64573;50.328;15.014;2023-06-01T07:29:35;99059.50;;;24.16;38.16
75895;BME280;64573;50.328;15.014;2023-06-01T07:32:01;99057.59;;;24.21;38.87
75895;BME280;64573;50.328;15.014;2023-06-01T07:34:27;99062.41;;;24.67;37.07
75895;BME280;64573;50.328;15.014;2023-06-01T07:36:52;99057.44;;;24.54;36.85
75895;BME280;64573;50.328;15.014;2023-06-01T07:39:18;99053.34;;;24.61;37.26
75895;BME280;64573;50.328;15.014;2023-06-01T07:41:45;99053.94;;;24.84;35.81
75895;BME280;64573;50.328;15.014;2023-06-01T07:44:10;99055.59;;;24.80;36.33
75895;BME280;64573;50.328;15.014;2023-06-01T07:46:37;99058.06;;;24.91;36.47
75895;BME280;64573;50.328;15.014;2023-06-01T07:49:03;99054.38;;;24.40;35.93
75895;BME280;64573;50.328;15.014;2023-06-01T07:51:28;99052.81;;;24.64;36.22
75895;BME280;64573;50.328;15.014;2023-06-01T07:53:54;99040.50;;;26.38;32.90
75895;BME280;64573;50.328;15.014;2023-06-01T07:56:23;99046.22;;;25.77;33.72
75895;BME280;64573;50.328;15.014;2023-06-01T07:58:54;99038.00;;;24.60;34.27
75895;BME280;64573;50.328;15.014;2023-06-01T08:01:20;99043.25;;;24.92;33.05
75895;BME280;64573;50.328;15.014;2023-06-01T08:03:46;99049.81;;;24.66;34.19
75895;BME280;64573;50.328;15.014;2023-06-01T08:06:11;99051.06;;;24.33;35.79
75895;BME280;64573;50.328;15.014;2023-06-01T08:08:37;99047.25;;;23.81;35.81
75895;BME280;64573;50.328;15.014;2023-06-01T08:11:04;99046.72;;;23.79;36.53
75895;BME280;64573;50.328;15.014;2023-06-01T08:13:30;99045.66;;;24.43;36.96
75895;BME280;64573;50.328;15.014;2023-06-01T08:15:55;99050.00;;;24.34;38.25
75895;BME280;64573;50.328;15.014;2023-06-01T08:18:21;99052.56;;;24.71;36.36
75895;BME280;64573;50.328;15.014;2023-06-01T08:20:47;99040.75;;;25.62;34.46
75895;BME280;64573;50.328;15.014;2023-06-01T08:23:13;99036.88;;;25.94;33.30
75895;BME280;64573;50.328;15.014;2023-06-01T08:25:43;99043.75;;;25.71;33.27
75895;BME280;64573;50.328;15.014;2023-06-01T08:28:08;99038.00;;;25.62;33.43
75895;BME280;64573;50.328;15.014;2023-06-01T08:30:33;99037.78;;;25.38;33.48
75895;BME280;64573;50.328;15.014;2023-06-01T08:32:59;99025.59;;;25.95;33.30
75895;BME280;64573;50.328;15.014;2023-06-01T08:35:24;99027.19;;;26.06;32.24
75895;BME280;64573;50.328;15.014;2023-06-01T08:37:50;99025.53;;;27.67;30.73
75895;BME280;64573;50.328;15.014;2023-06-01T08:40:16;99026.03;;;26.23;32.20
75895;BME280;64573;50.328;15.014;2023-06-01T08:42:49;99026.81;;;24.77;34.98
75895;BME280;64573;50.328;15.014;2023-06-01T08:45:19;99015.28;;;25.26;34.20
75895;BME280;64573;50.328;15.014;2023-06-01T08:47:46;99014.25;;;26.07;33.29
75895;BME280;64573;50.328;15.014;2023-06-01T08:50:12;99016.19;;;26.66;32.87
75895;BME280;64573;50.328;15.014;2023-06-01T08:52:38;99013.44;;;28.11;30.83
75895;BME280;64573;50.328;15.014;2023-06-01T08:55:06;99013.78;;;28.47;29.33
75895;BME280;64573;50.328;15.014;2023-06-01T08:57:32;99023.34;;;28.55;29.79
75895;BME280;64573;50.328;15.014;2023-06-01T08:59:58;99012.88;;;28.09;28.93
75895;BME280;64573;50.328;15.014;2023-06-01T09:02:26;99017.91;;;27.83;29.63
75895;BME280;64573;50.328;15.014;2023-06-01T09:04:52;99007.75;;;27.79;29.95
75895;BME280;64573;50.328;15.014;2023-06-01T09:07:18;99000.59;;;29.15;29.07
75895;BME280;64573;50.328;15.014;2023-06-01T09:09:45;99002.28;;;29.29;29.20
75895;BME280;64573;50.328;15.014;2023-06-01T09:12:24;98996.16;;;29.00;27.26
75895;BME280;64573;50.328;15.014;2023-06-01T09:17:32;98987.91;;;29.60;26.18
75895;BME280;64573;50.328;15.014;2023-06-01T09:19:57;98994.00;;;29.43;25.96
75895;BME280;64573;50.328;15.014;2023-06-01T09:22:23;98993.69;;;28.23;25.42
75895;BME280;64573;50.328;15.014;2023-06-01T09:24:56;98988.88;;;28.52;26.46
75895;BME280;64573;50.328;15.014;2023-06-01T09:27:23;98990.28;;;27.59;28.42
75895;BME280;64573;50.328;15.014;2023-06-01T09:29:56;98987.22;;;27.90;27.59
75895;BME280;64573;50.328;15.014;2023-06-01T09:32:21;98989.53;;;28.63;26.79
75895;BME280;64573;50.328;15.014;2023-06-01T09:34:47;98980.16;;;28.45;26.96
75895;BME280;64573;50.328;15.014;2023-06-01T09:37:12;98981.31;;;28.20;27.02
75895;BME280;64573;50.328;15.014;2023-06-01T09:39:39;98985.41;;;28.23;26.50
75895;BME280;64573;50.328;15.014;2023-06-01T09:42:05;98977.03;;;28.09;26.68
75895;BME280;64573;50.328;15.014;2023-06-01T09:44:36;98983.13;;;27.34;27.92
75895;BME280;64573;50.328;15.014;2023-06-01T09:47:02;98980.47;;;28.01;26.54
75895;BME280;64573;50.328;15.014;2023-06-01T09:49:30;98974.09;;;27.29;28.46
75895;BME280;64573;50.328;15.014;2023-06-01T09:54:33;98972.06;;;28.11;27.29
75895;BME280;64573;50.328;15.014;2023-06-01T09:57:02;98976.72;;;28.53;26.37
75895;BME280;64573;50.328;15.014;2023-06-01T09:59:28;98971.59;;;28.47;26.47
75895;BME280;64573;50.328;15.014;2023-06-01T10:01:57;98957.81;;;28.47;27.38
75895;BME280;64573;50.328;15.014;2023-06-01T10:04:26;98962.22;;;28.24;27.27
75895;BME280;64573;50.328;15.014;2023-06-01T10:06:56;98959.75;;;28.22;27.68
75895;BME280;64573;50.328;15.014;2023-06-01T10:09:23;98953.44;;;27.31;29.18
75895;BME280;64573;50.328;15.014;2023-06-01T10:11:51;98950.72;;;26.97;28.92
75895;BME280;64573;50.328;15.014;2023-06-01T10:14:19;98948.88;;;26.87;29.19
75895;BME280;64573;50.328;15.014;2023-06-01T10:16:45;98937.97;;;26.33;28.62
75895;BME280;64573;50.328;15.014;2023-06-01T10:19:13;98944.47;;;26.52;29.02
75895;BME280;64573;50.328;15.014;2023-06-01T10:21:39;98939.69;;;26.97;29.60
75895;BME280;64573;50.328;15.014;2023-06-01T10:24:06;98941.63;;;26.67;28.81
75895;BME280;64573;50.328;15.014;2023-06-01T10:26:39;98933.84;;;27.04;30.33
75895;BME280;64573;50.328;15.014;2023-06-01T10:29:07;98944.16;;;26.59;30.91
75895;BME280;64573;50.328;15.014;2023-06-01T10:31:40;98940.81;;;26.62;31.73
75895;BME280;64573;50.328;15.014;2023-06-01T10:34:08;98937.47;;;26.65;29.01
75895;BME280;64573;50.328;15.014;2023-06-01T10:39:28;98931.81;;;27.43;27.12
75895;BME280;64573;50.328;15.014;2023-06-01T10:41:56;98931.28;;;27.65;28.96
75895;BME280;64573;50.328;15.014;2023-06-01T10:52:33;98928.66;;;27.55;25.28
75895;BME280;64573;50.328;15.014;2023-06-01T10:57:31;98924.81;;;26.98;28.66
75895;BME280;64573;50.328;15.014;2023-06-01T11:00:25;98927.41;;;26.55;26.77
75895;BME280;64573;50.328;15.014;2023-06-01T11:02:58;98920.84;;;27.62;25.26
75895;BME280;64573;50.328;15.014;2023-06-01T11:10:58;98907.00;;;28.10;25.93
75895;BME280;64573;50.328;15.014;2023-06-01T11:13:28;98900.56;;;28.71;25.28
75895;BME280;64573;50.328;15.014;2023-06-01T11:18:52;98898.13;;;27.75;26.87
75895;BME280;64573;50.328;15.014;2023-06-01T11:21:41;98893.13;;;28.15;27.69
75895;BME280;64573;50.328;15.014;2023-06-01T11:24:13;98892.78;;;27.12;29.84
75895;BME280;64573;50.328;15.014;2023-06-01T11:26:44;98894.22;;;26.76;29.03
75895;BME280;64573;50.328;15.014;2023-06-01T11:29:11;98897.06;;;27.24;27.12
75895;BME280;64573;50.328;15.014;2023-06-01T11:31:42;98886.66;;;27.68;27.48
75895;BME280;64573;50.328;15.014;2023-06-01T11:34:09;98888.66;;;28.57;27.16
75895;BME280;64573;50.328;15.014;2023-06-01T11:36:36;98879.06;;;26.78;29.29
75895;BME280;64573;50.328;15.014;2023-06-01T11:39:02;98877.09;;;26.50;29.39
75895;BME280;64573;50.328;15.014;2023-06-01T11:41:28;98879.97;;;25.90;30.06
75895;BME280;64573;50.328;15.014;2023-06-01T11:43:57;98878.66;;;27.67;28.89
75895;BME280;64573;50.328;15.014;2023-06-01T11:46:23;98873.84;;;27.78;28.85
75895;BME280;64573;50.328;15.014;2023-06-01T11:51:30;98868.16;;;27.45;28.89
75895;BME280;64573;50.328;15.014;2023-06-01T11:53:56;98858.84;;;28.73;28.05
75895;BME280;64573;50.328;15.014;2023-06-01T11:56:28;98855.16;;;29.24;25.91
75895;BME280;64573;50.328;15.014;2023-06-01T11:58:57;98851.69;;;29.32;25.12
75895;BME280;64573;50.328;15.014;2023-06-01T12:01:24;98852.63;;;28.81;26.42
75895;BME280;64573;50.328;15.014;2023-06-01T12:03:50;98863.50;;;28.26;27.79
75895;BME280;64573;50.328;15.014;2023-06-01T12:06:21;98851.47;;;28.17;27.91
75895;BME280;64573;50.328;15.014;2023-06-01T12:08:49;98846.00;;;27.98;27.83
75895;BME280;64573;50.328;15.014;2023-06-01T12:11:19;98845.72;;;28.51;27.98
75895;BME280;64573;50.328;15.014;2023-06-01T12:13:46;98848.03;;;28.76;25.98
75895;BME280;64573;50.328;15.014;2023-06-01T12:16:14;98834.94;;;28.82;25.13
75895;BME280;64573;50.328;15.014;2023-06-01T12:18:40;98835.41;;;29.44;23.76
75895;BME280;64573;50.328;15.014;2023-06-01T12:21:13;98833.84;;;29.79;24.85
75895;BME280;64573;50.328;15.014;2023-06-01T12:23:38;98830.00;;;28.98;25.18
75895;BME280;64573;50.328;15.014;2023-06-01T12:26:04;98831.09;;;28.18;26.20
75895;BME280;64573;50.328;15.014;2023-06-01T12:28:52;98828.75;;;28.90;24.75
75895;BME280;64573;50.328;15.014;2023-06-01T12:31:20;98823.63;;;30.02;23.51
75895;BME280;64573;50.328;15.014;2023-06-01T12:33:46;98820.59;;;29.26;24.13
75895;BME280;64573;50.328;15.014;2023-06-01T12:36:33;98821.56;;;30.53;23.40
75895;BME280;64573;50.328;15.014;2023-06-01T12:39:00;98821.28;;;29.32;24.28
75895;BME280;64573;50.328;15.014;2023-06-01T12:41:27;98826.56;;;28.73;25.24
75895;BME280;64573;50.328;15.014;2023-06-01T12:43:52;98813.94;;;29.41;23.49
75895;BME280;64573;50.328;15.014;2023-06-01T12:46:19;98812.53;;;29.80;25.23
75895;BME280;64573;50.328;15.014;2023-06-01T12:48:44;98808.66;;;29.81;25.78
75895;BME280;64573;50.328;15.014;2023-06-01T12:51:12;98812.50;;;29.93;25.13
75895;BME280;64573;50.328;15.014;2023-06-01T12:53:38;98804.53;;;30.59;24.23
75895;BME280;64573;50.328;15.014;2023-06-01T12:56:04;98809.66;;;31.06;23.10
75895;BME280;64573;50.328;15.014;2023-06-01T12:58:30;98800.03;;;31.03;24.58
75895;BME280;64573;50.328;15.014;2023-06-01T13:00:56;98799.63;;;30.34;24.46
75895;BME280;64573;50.328;15.014;2023-06-01T13:03:22;98791.19;;;29.72;25.94
75895;BME280;64573;50.328;15.014;2023-06-01T13:05:47;98799.81;;;28.22;27.32
75895;BME280;64573;50.328;15.014;2023-06-01T13:08:15;98795.06;;;28.74;26.46
75895;BME280;64573;50.328;15.014;2023-06-01T13:10:41;98800.66;;;28.23;27.45
75895;BME280;64573;50.328;15.014;2023-06-01T13:13:07;98793.25;;;28.37;26.26
75895;BME280;64573;50.328;15.014;2023-06-01T13:15:34;98783.09;;;29.48;23.87
75895;BME280;64573;50.328;15.014;2023-06-01T13:17:59;98790.56;;;30.64;23.44
75895;BME280;64573;50.328;15.014;2023-06-01T13:20:24;98786.72;;;30.74;23.57
75895;BME280;64573;50.328;15.014;2023-06-01T13:22:51;98787.09;;;30.28;25.42
75895;BME280;64573;50.328;15.014;2023-06-01T13:25:17;98777.75;;;28.41;26.18
75895;BME280;64573;50.328;15.014;2023-06-01T13:27:44;98775.75;;;28.28;26.81
75895;BME280;64573;50.328;15.014;2023-06-01T13:30:10;98781.69;;;29.64;26.01